Island Explorer — WDH8636 — position and weather

sailwx.info

Track history (hours):
 
Tides and Currents Weather Stations Pressure Air Temp Water Temp Dewpoint Dewpoint Depression Visibility Wind Speed Wind Dir Waves Ship Positions

Island Explorer

Owner: Stevens Towing Co., Inc, Yonges Island, SC. More information available from US FCC via Universal Licensing System and Coast Guard Vessel Documentation Center.

Last reported at 2017-Dec-11 17:01 UTC. Time now 2017-Dec-13 22:18 UTC.
Position N 34°46' W 076°40'.

Length 19 m.

MMSI: 367660050.

Date/timePositionNaut miles runAvg speedWind from/ knotsBaromVisibWave heightAir tempDewpointWater temp
2017-Dec-11 17:01N 34°46' W 076°40'3 5.2
2017-Dec-11 16:31N 34°48' W 076°41'3 6.3
2017-Dec-11 16:01N 34°51' W 076°41'3 6.4
2017-Dec-11 15:29N 34°54' W 076°40'3 5.9
2017-Dec-11 15:01N 34°57' W 076°41'4 5.5
2017-Dec-11 14:18N 35°01' W 076°39'3 6.9
2017-Dec-11 13:55N 35°02' W 076°37'3 7.0
2017-Dec-11 13:30N 35°04' W 076°34'3 6.8
2017-Dec-11 13:01N 35°07' W 076°31'3 5.6
2017-Dec-11 12:30N 35°09' W 076°31'  
2017-Dec-07 09:02N 35°07' W 076°31'1 4.9
2017-Dec-07 08:53N 35°07' W 076°31'2 5.1
2017-Dec-07 08:30N 35°05' W 076°32'4 5.0
2017-Dec-07 07:44N 35°02' W 076°36'2 4.8
2017-Dec-07 07:24N 35°02' W 076°38'3 4.6
2017-Dec-07 06:43N 34°60' W 076°41'1 5.1
2017-Dec-07 06:30N 34°59' W 076°41'3 4.4
2017-Dec-07 05:43N 34°56' W 076°39'1 4.9
2017-Dec-07 05:30N 34°55' W 076°40'2 4.8
2017-Dec-07 05:00N 34°53' W 076°41'3 5.4
2017-Dec-07 04:30N 34°50' W 076°41'3 5.4
2017-Dec-07 04:00N 34°48' W 076°41'2 4.9
2017-Dec-07 03:30N 34°45' W 076°41'2 3.9
2017-Dec-07 03:00N 34°44' W 076°42'0 0.0
2017-Dec-07 02:30N 34°44' W 076°42'0 0.0
2017-Dec-07 02:00N 34°44' W 076°42'0 0.0
2017-Dec-07 01:30N 34°44' W 076°42'0 0.0
2017-Dec-07 01:00N 34°44' W 076°42'0 0.0
2017-Dec-07 00:30N 34°44' W 076°42'0 0.0
2017-Dec-07 00:00N 34°44' W 076°42'0 0.0
2017-Dec-06 23:30N 34°44' W 076°42'1 1.4
2017-Dec-06 23:00N 34°43' W 076°42'0 0.6
2017-Dec-06 22:30N 34°43' W 076°42'0 0.0
2017-Dec-06 22:00N 34°43' W 076°42'0 0.0
2017-Dec-06 21:30N 34°43' W 076°42'0 0.0
2017-Dec-06 21:00N 34°43' W 076°42'  
2017-Dec-02 06:17N 35°08' W 076°30'2 5.3
2017-Dec-02 05:59N 35°07' W 076°31'3 5.3
2017-Dec-02 05:25N 35°04' W 076°33'9 5.2
2017-Dec-02 03:44N 34°59' W 076°42'1 4.4
2017-Dec-02 03:30N 34°58' W 076°41'2 4.7
2017-Dec-02 03:00N 34°56' W 076°39'2 4.4
2017-Dec-02 02:30N 34°54' W 076°41'2 3.8
2017-Dec-02 02:00N 34°52' W 076°42'2 4.8
2017-Dec-02 01:30N 34°50' W 076°41'2 5.0
2017-Dec-02 01:00N 34°47' W 076°41'2 4.4
2017-Dec-02 00:30N 34°45' W 076°40'2 4.2
2017-Dec-02 00:00N 34°44' W 076°42'1 1.0
2017-Dec-01 23:30N 34°43' W 076°41'0 0.0
2017-Dec-01 23:00N 34°43' W 076°41'1 1.3
2017-Dec-01 22:30N 34°43' W 076°42'0 0.0
2017-Dec-01 22:00N 34°43' W 076°42'0 0.0
2017-Dec-01 21:30N 34°43' W 076°42'0 0.0
2017-Dec-01 21:00N 34°43' W 076°42'0 0.0
2017-Dec-01 20:30N 34°43' W 076°42'0 0.0
2017-Dec-01 20:00N 34°43' W 076°42'0 0.0
2017-Dec-01 19:30N 34°43' W 076°42'0 0.0
2017-Dec-01 19:00N 34°43' W 076°42'0 0.0
2017-Dec-01 18:30N 34°43' W 076°42'0 0.0
2017-Dec-01 18:00N 34°43' W 076°42'0 0.0
2017-Dec-01 17:30N 34°43' W 076°42'  
Track history (hours):
 
Tides and Currents Weather Stations Pressure Air Temp Water Temp Dewpoint Dewpoint Depression Visibility Wind Speed Wind Dir Waves Ship Positions

Island Explorer

Owner: Stevens Towing Co., Inc, Yonges Island, SC. More information available from US FCC via Universal Licensing System and Coast Guard Vessel Documentation Center.

Last reported at 2017-Dec-11 17:01 UTC. Time now 2017-Dec-13 22:18 UTC.
Position N 34°46' W 076°40'.

Length 19 m.

MMSI: 367660050.

Date/timePositionNaut miles runAvg speedWind from/ knotsBaromVisibWave heightAir tempDewpointWater temp
2017-Dec-11 17:01N 34°46' W 076°40'3 5.2
2017-Dec-11 16:31N 34°48' W 076°41'3 6.3
2017-Dec-11 16:01N 34°51' W 076°41'3 6.4
2017-Dec-11 15:29N 34°54' W 076°40'3 5.9
2017-Dec-11 15:01N 34°57' W 076°41'4 5.5
2017-Dec-11 14:18N 35°01' W 076°39'3 6.9
2017-Dec-11 13:55N 35°02' W 076°37'3 7.0
2017-Dec-11 13:30N 35°04' W 076°34'3 6.8
2017-Dec-11 13:01N 35°07' W 076°31'3 5.6
2017-Dec-11 12:30N 35°09' W 076°31'  
2017-Dec-07 09:02N 35°07' W 076°31'1 4.9
2017-Dec-07 08:53N 35°07' W 076°31'2 5.1
2017-Dec-07 08:30N 35°05' W 076°32'4 5.0
2017-Dec-07 07:44N 35°02' W 076°36'2 4.8
2017-Dec-07 07:24N 35°02' W 076°38'3 4.6
2017-Dec-07 06:43N 34°60' W 076°41'1 5.1
2017-Dec-07 06:30N 34°59' W 076°41'3 4.4
2017-Dec-07 05:43N 34°56' W 076°39'1 4.9
2017-Dec-07 05:30N 34°55' W 076°40'2 4.8
2017-Dec-07 05:00N 34°53' W 076°41'3 5.4
2017-Dec-07 04:30N 34°50' W 076°41'3 5.4
2017-Dec-07 04:00N 34°48' W 076°41'2 4.9
2017-Dec-07 03:30N 34°45' W 076°41'2 3.9
2017-Dec-07 03:00N 34°44' W 076°42'0 0.0
2017-Dec-07 02:30N 34°44' W 076°42'0 0.0
2017-Dec-07 02:00N 34°44' W 076°42'0 0.0
2017-Dec-07 01:30N 34°44' W 076°42'0 0.0
2017-Dec-07 01:00N 34°44' W 076°42'0 0.0
2017-Dec-07 00:30N 34°44' W 076°42'0 0.0
2017-Dec-07 00:00N 34°44' W 076°42'0 0.0
2017-Dec-06 23:30N 34°44' W 076°42'1 1.4
2017-Dec-06 23:00N 34°43' W 076°42'0 0.6
2017-Dec-06 22:30N 34°43' W 076°42'0 0.0
2017-Dec-06 22:00N 34°43' W 076°42'0 0.0
2017-Dec-06 21:30N 34°43' W 076°42'0 0.0
2017-Dec-06 21:00N 34°43' W 076°42'  
2017-Dec-02 06:17N 35°08' W 076°30'2 5.3
2017-Dec-02 05:59N 35°07' W 076°31'3 5.3
2017-Dec-02 05:25N 35°04' W 076°33'9 5.2
2017-Dec-02 03:44N 34°59' W 076°42'1 4.4
2017-Dec-02 03:30N 34°58' W 076°41'2 4.7
2017-Dec-02 03:00N 34°56' W 076°39'2 4.4
2017-Dec-02 02:30N 34°54' W 076°41'2 3.8
2017-Dec-02 02:00N 34°52' W 076°42'2 4.8
2017-Dec-02 01:30N 34°50' W 076°41'2 5.0
2017-Dec-02 01:00N 34°47' W 076°41'2 4.4
2017-Dec-02 00:30N 34°45' W 076°40'2 4.2
2017-Dec-02 00:00N 34°44' W 076°42'1 1.0
2017-Dec-01 23:30N 34°43' W 076°41'0 0.0
2017-Dec-01 23:00N 34°43' W 076°41'1 1.3
2017-Dec-01 22:30N 34°43' W 076°42'0 0.0
2017-Dec-01 22:00N 34°43' W 076°42'0 0.0
2017-Dec-01 21:30N 34°43' W 076°42'0 0.0
2017-Dec-01 21:00N 34°43' W 076°42'0 0.0
2017-Dec-01 20:30N 34°43' W 076°42'0 0.0
2017-Dec-01 20:00N 34°43' W 076°42'0 0.0
2017-Dec-01 19:30N 34°43' W 076°42'0 0.0
2017-Dec-01 19:00N 34°43' W 076°42'0 0.0
2017-Dec-01 18:30N 34°43' W 076°42'0 0.0
2017-Dec-01 18:00N 34°43' W 076°42'0 0.0
2017-Dec-01 17:30N 34°43' W 076°42'  

Dump ship's entire track history